sensor_id;sensor_type;location;lat;lon;timestamp;P1;durP1;ratioP1;P2;durP2;ratioP2
16837;SDS011;19510;54.486;9.046;2023-05-07T00:00:20;15.75;;;7.82;;
16837;SDS011;19510;54.486;9.046;2023-05-07T00:02:46;13.88;;;7.75;;
16837;SDS011;19510;54.486;9.046;2023-05-07T00:05:12;11.43;;;6.80;;
16837;SDS011;19510;54.486;9.046;2023-05-07T00:07:37;16.75;;;7.95;;
16837;SDS011;19510;54.486;9.046;2023-05-07T00:10:03;18.08;;;7.90;;
16837;SDS011;19510;54.486;9.046;2023-05-07T00:12:31;14.65;;;7.88;;
16837;SDS011;19510;54.486;9.046;2023-05-07T00:14:59;15.02;;;7.30;;
16837;SDS011;19510;54.486;9.046;2023-05-07T00:17:25;18.35;;;8.50;;
16837;SDS011;19510;54.486;9.046;2023-05-07T00:19:51;16.30;;;7.65;;
16837;SDS011;19510;54.486;9.046;2023-05-07T00:22:17;17.27;;;7.65;;
16837;SDS011;19510;54.486;9.046;2023-05-07T00:24:42;16.60;;;8.13;;
16837;SDS011;19510;54.486;9.046;2023-05-07T00:27:08;14.20;;;7.60;;
16837;SDS011;19510;54.486;9.046;2023-05-07T00:29:34;19.15;;;8.30;;
16837;SDS011;19510;54.486;9.046;2023-05-07T00:32:01;16.23;;;7.95;;
16837;SDS011;19510;54.486;9.046;2023-05-07T00:34:27;18.23;;;7.93;;
16837;SDS011;19510;54.486;9.046;2023-05-07T00:36:52;15.60;;;8.07;;
16837;SDS011;19510;54.486;9.046;2023-05-07T00:39:18;19.40;;;7.63;;
16837;SDS011;19510;54.486;9.046;2023-05-07T00:41:44;14.75;;;8.05;;
16837;SDS011;19510;54.486;9.046;2023-05-07T00:44:11;17.23;;;8.23;;
16837;SDS011;19510;54.486;9.046;2023-05-07T00:46:36;13.93;;;6.57;;
16837;SDS011;19510;54.486;9.046;2023-05-07T00:49:03;14.80;;;7.35;;
16837;SDS011;19510;54.486;9.046;2023-05-07T00:51:30;13.30;;;7.13;;
16837;SDS011;19510;54.486;9.046;2023-05-07T00:53:55;13.98;;;7.30;;
16837;SDS011;19510;54.486;9.046;2023-05-07T00:56:21;16.23;;;7.85;;
16837;SDS011;19510;54.486;9.046;2023-05-07T00:58:48;13.13;;;6.95;;
16837;SDS011;19510;54.486;9.046;2023-05-07T01:01:14;13.43;;;6.82;;
16837;SDS011;19510;54.486;9.046;2023-05-07T01:03:43;13.02;;;7.18;;
16837;SDS011;19510;54.486;9.046;2023-05-07T01:06:08;15.13;;;7.22;;
16837;SDS011;19510;54.486;9.046;2023-05-07T01:08:38;13.88;;;7.45;;
16837;SDS011;19510;54.486;9.046;2023-05-07T01:11:06;15.18;;;8.00;;
16837;SDS011;19510;54.486;9.046;2023-05-07T01:13:33;14.13;;;7.68;;
16837;SDS011;19510;54.486;9.046;2023-05-07T01:16:02;15.02;;;7.78;;
16837;SDS011;19510;54.486;9.046;2023-05-07T01:18:28;12.25;;;7.13;;
16837;SDS011;19510;54.486;9.046;2023-05-07T01:20:55;14.27;;;7.53;;
16837;SDS011;19510;54.486;9.046;2023-05-07T01:23:24;15.98;;;8.23;;
16837;SDS011;19510;54.486;9.046;2023-05-07T01:25:53;16.02;;;8.07;;
16837;SDS011;19510;54.486;9.046;2023-05-07T01:28:19;12.40;;;7.32;;
16837;SDS011;19510;54.486;9.046;2023-05-07T01:30:46;12.30;;;7.00;;
16837;SDS011;19510;54.486;9.046;2023-05-07T01:33:17;14.65;;;8.07;;
16837;SDS011;19510;54.486;9.046;2023-05-07T01:35:47;17.17;;;7.60;;
16837;SDS011;19510;54.486;9.046;2023-05-07T01:38:16;14.68;;;7.70;;
16837;SDS011;19510;54.486;9.046;2023-05-07T01:40:43;15.88;;;7.57;;
16837;SDS011;19510;54.486;9.046;2023-05-07T01:43:09;16.42;;;8.05;;
16837;SDS011;19510;54.486;9.046;2023-05-07T01:45:35;17.10;;;7.63;;
16837;SDS011;19510;54.486;9.046;2023-05-07T01:48:02;13.68;;;7.20;;
16837;SDS011;19510;54.486;9.046;2023-05-07T01:50:28;12.98;;;6.97;;
16837;SDS011;19510;54.486;9.046;2023-05-07T01:52:55;14.02;;;8.45;;
16837;SDS011;19510;54.486;9.046;2023-05-07T01:55:21;15.18;;;7.57;;
16837;SDS011;19510;54.486;9.046;2023-05-07T01:57:47;11.57;;;7.70;;
16837;SDS011;19510;54.486;9.046;2023-05-07T02:00:13;15.93;;;7.80;;
16837;SDS011;19510;54.486;9.046;2023-05-07T02:02:39;13.65;;;7.53;;
16837;SDS011;19510;54.486;9.046;2023-05-07T02:05:05;16.45;;;8.73;;
16837;SDS011;19510;54.486;9.046;2023-05-07T02:07:31;13.55;;;8.13;;
16837;SDS011;19510;54.486;9.046;2023-05-07T02:09:56;14.50;;;7.68;;
16837;SDS011;19510;54.486;9.046;2023-05-07T02:12:22;15.25;;;8.20;;
16837;SDS011;19510;54.486;9.046;2023-05-07T02:14:48;13.27;;;8.07;;
16837;SDS011;19510;54.486;9.046;2023-05-07T02:17:15;16.35;;;7.80;;
16837;SDS011;19510;54.486;9.046;2023-05-07T02:19:40;16.95;;;8.35;;
16837;SDS011;19510;54.486;9.046;2023-05-07T02:22:06;15.80;;;8.07;;
16837;SDS011;19510;54.486;9.046;2023-05-07T02:24:32;15.48;;;8.15;;
16837;SDS011;19510;54.486;9.046;2023-05-07T02:26:58;16.75;;;7.97;;
16837;SDS011;19510;54.486;9.046;2023-05-07T02:29:24;15.20;;;8.05;;
16837;SDS011;19510;54.486;9.046;2023-05-07T02:31:50;15.10;;;7.85;;
16837;SDS011;19510;54.486;9.046;2023-05-07T02:34:17;11.35;;;7.43;;
16837;SDS011;19510;54.486;9.046;2023-05-07T02:36:44;14.35;;;8.23;;
16837;SDS011;19510;54.486;9.046;2023-05-07T02:39:12;14.55;;;7.95;;
16837;SDS011;19510;54.486;9.046;2023-05-07T02:41:38;13.98;;;8.57;;
16837;SDS011;19510;54.486;9.046;2023-05-07T02:44:04;15.20;;;8.25;;
16837;SDS011;19510;54.486;9.046;2023-05-07T02:46:30;14.27;;;8.55;;
16837;SDS011;19510;54.486;9.046;2023-05-07T02:48:56;12.98;;;8.05;;
16837;SDS011;19510;54.486;9.046;2023-05-07T02:51:22;13.35;;;8.15;;
16837;SDS011;19510;54.486;9.046;2023-05-07T02:53:48;14.82;;;8.45;;
16837;SDS011;19510;54.486;9.046;2023-05-07T02:56:13;13.25;;;7.28;;
16837;SDS011;19510;54.486;9.046;2023-05-07T02:58:39;13.93;;;7.75;;
16837;SDS011;19510;54.486;9.046;2023-05-07T03:01:05;14.73;;;8.20;;
16837;SDS011;19510;54.486;9.046;2023-05-07T03:03:31;12.77;;;8.15;;
16837;SDS011;19510;54.486;9.046;2023-05-07T03:05:57;13.35;;;8.35;;
16837;SDS011;19510;54.486;9.046;2023-05-07T03:08:23;12.48;;;7.75;;
16837;SDS011;19510;54.486;9.046;2023-05-07T03:10:49;15.18;;;9.07;;
16837;SDS011;19510;54.486;9.046;2023-05-07T03:13:15;12.85;;;7.63;;
16837;SDS011;19510;54.486;9.046;2023-05-07T03:15:41;12.38;;;7.60;;
16837;SDS011;19510;54.486;9.046;2023-05-07T03:18:07;13.18;;;7.28;;
16837;SDS011;19510;54.486;9.046;2023-05-07T03:20:33;12.73;;;7.80;;
16837;SDS011;19510;54.486;9.046;2023-05-07T03:22:58;14.52;;;8.02;;
16837;SDS011;19510;54.486;9.046;2023-05-07T03:25:24;14.70;;;8.35;;
16837;SDS011;19510;54.486;9.046;2023-05-07T03:27:50;11.00;;;7.45;;
16837;SDS011;19510;54.486;9.046;2023-05-07T03:30:16;11.32;;;6.85;;
16837;SDS011;19510;54.486;9.046;2023-05-07T03:32:43;11.68;;;7.63;;
16837;SDS011;19510;54.486;9.046;2023-05-07T03:35:09;14.35;;;7.82;;
16837;SDS011;19510;54.486;9.046;2023-05-07T03:37:34;14.38;;;7.80;;
16837;SDS011;19510;54.486;9.046;2023-05-07T03:40:00;12.80;;;7.75;;
16837;SDS011;19510;54.486;9.046;2023-05-07T03:42:28;14.02;;;8.27;;
16837;SDS011;19510;54.486;9.046;2023-05-07T03:44:54;12.23;;;7.97;;
16837;SDS011;19510;54.486;9.046;2023-05-07T03:47:20;12.30;;;7.68;;
16837;SDS011;19510;54.486;9.046;2023-05-07T03:49:46;15.00;;;8.35;;
16837;SDS011;19510;54.486;9.046;2023-05-07T03:52:13;12.43;;;7.70;;
16837;SDS011;19510;54.486;9.046;2023-05-07T03:54:39;12.18;;;7.82;;
16837;SDS011;19510;54.486;9.046;2023-05-07T03:57:05;16.10;;;9.68;;
16837;SDS011;19510;54.486;9.046;2023-05-07T03:59:30;12.43;;;8.02;;
16837;SDS011;19510;54.486;9.046;2023-05-07T04:01:57;13.00;;;8.38;;
16837;SDS011;19510;54.486;9.046;2023-05-07T04:04:23;14.25;;;8.45;;
16837;SDS011;19510;54.486;9.046;2023-05-07T04:06:49;16.58;;;8.52;;
16837;SDS011;19510;54.486;9.046;2023-05-07T04:09:14;12.93;;;8.30;;
16837;SDS011;19510;54.486;9.046;2023-05-07T04:11:40;13.30;;;8.43;;
16837;SDS011;19510;54.486;9.046;2023-05-07T04:14:06;15.40;;;8.60;;
16837;SDS011;19510;54.486;9.046;2023-05-07T04:16:32;12.85;;;8.23;;
16837;SDS011;19510;54.486;9.046;2023-05-07T04:18:59;12.82;;;8.07;;
16837;SDS011;19510;54.486;9.046;2023-05-07T04:21:25;11.95;;;7.82;;
16837;SDS011;19510;54.486;9.046;2023-05-07T04:23:51;13.93;;;8.43;;
16837;SDS011;19510;54.486;9.046;2023-05-07T04:26:17;12.95;;;8.32;;
16837;SDS011;19510;54.486;9.046;2023-05-07T04:28:43;12.30;;;7.93;;
16837;SDS011;19510;54.486;9.046;2023-05-07T04:31:08;16.40;;;8.85;;
16837;SDS011;19510;54.486;9.046;2023-05-07T04:33:34;15.18;;;8.82;;
16837;SDS011;19510;54.486;9.046;2023-05-07T04:36:03;13.35;;;8.20;;
16837;SDS011;19510;54.486;9.046;2023-05-07T04:38:30;12.02;;;7.47;;
16837;SDS011;19510;54.486;9.046;2023-05-07T04:40:56;12.27;;;8.48;;
16837;SDS011;19510;54.486;9.046;2023-05-07T04:43:23;13.10;;;8.32;;
16837;SDS011;19510;54.486;9.046;2023-05-07T04:45:51;13.00;;;8.10;;
16837;SDS011;19510;54.486;9.046;2023-05-07T04:48:17;10.93;;;7.65;;
16837;SDS011;19510;54.486;9.046;2023-05-07T04:50:48;12.25;;;8.60;;
16837;SDS011;19510;54.486;9.046;2023-05-07T04:53:17;12.30;;;7.93;;
16837;SDS011;19510;54.486;9.046;2023-05-07T04:55:43;13.70;;;7.80;;
16837;SDS011;19510;54.486;9.046;2023-05-07T04:58:10;12.30;;;8.00;;
16837;SDS011;19510;54.486;9.046;2023-05-07T05:00:36;12.95;;;8.25;;
16837;SDS011;19510;54.486;9.046;2023-05-07T05:03:03;11.80;;;8.38;;
16837;SDS011;19510;54.486;9.046;2023-05-07T05:05:30;11.52;;;7.75;;
16837;SDS011;19510;54.486;9.046;2023-05-07T05:07:55;11.40;;;7.70;;
16837;SDS011;19510;54.486;9.046;2023-05-07T05:10:21;11.43;;;7.70;;
16837;SDS011;19510;54.486;9.046;2023-05-07T05:12:47;12.02;;;7.90;;
16837;SDS011;19510;54.486;9.046;2023-05-07T05:15:13;11.07;;;7.03;;
16837;SDS011;19510;54.486;9.046;2023-05-07T05:17:39;14.48;;;7.53;;
16837;SDS011;19510;54.486;9.046;2023-05-07T05:20:05;9.90;;;6.85;;
16837;SDS011;19510;54.486;9.046;2023-05-07T05:22:31;9.98;;;6.32;;
16837;SDS011;19510;54.486;9.046;2023-05-07T05:24:57;10.13;;;6.72;;
16837;SDS011;19510;54.486;9.046;2023-05-07T05:27:23;10.45;;;7.10;;
16837;SDS011;19510;54.486;9.046;2023-05-07T05:29:49;9.50;;;6.85;;
16837;SDS011;19510;54.486;9.046;2023-05-07T05:32:15;11.00;;;7.20;;
16837;SDS011;19510;54.486;9.046;2023-05-07T05:34:41;15.30;;;7.45;;
16837;SDS011;19510;54.486;9.046;2023-05-07T05:37:07;11.15;;;7.00;;
16837;SDS011;19510;54.486;9.046;2023-05-07T05:39:32;9.50;;;6.75;;
16837;SDS011;19510;54.486;9.046;2023-05-07T05:41:58;10.38;;;6.68;;
16837;SDS011;19510;54.486;9.046;2023-05-07T05:44:26;9.18;;;6.10;;
16837;SDS011;19510;54.486;9.046;2023-05-07T05:46:52;8.18;;;5.75;;
16837;SDS011;19510;54.486;9.046;2023-05-07T05:49:20;8.30;;;5.93;;
16837;SDS011;19510;54.486;9.046;2023-05-07T05:51:46;10.00;;;5.93;;
16837;SDS011;19510;54.486;9.046;2023-05-07T05:54:12;8.50;;;4.93;;
16837;SDS011;19510;54.486;9.046;2023-05-07T05:56:38;9.23;;;5.65;;
16837;SDS011;19510;54.486;9.046;2023-05-07T05:59:03;8.93;;;5.28;;
16837;SDS011;19510;54.486;9.046;2023-05-07T06:01:32;7.97;;;5.95;;
16837;SDS011;19510;54.486;9.046;2023-05-07T06:03:58;9.02;;;5.70;;
16837;SDS011;19510;54.486;9.046;2023-05-07T06:06:23;8.65;;;6.00;;
16837;SDS011;19510;54.486;9.046;2023-05-07T06:08:49;9.88;;;7.30;;
16837;SDS011;19510;54.486;9.046;2023-05-07T06:11:15;8.07;;;5.53;;
16837;SDS011;19510;54.486;9.046;2023-05-07T06:13:40;9.27;;;5.75;;
16837;SDS011;19510;54.486;9.046;2023-05-07T06:16:06;7.95;;;5.45;;
16837;SDS011;19510;54.486;9.046;2023-05-07T06:18:32;7.95;;;5.43;;
16837;SDS011;19510;54.486;9.046;2023-05-07T06:20:58;6.80;;;5.15;;
16837;SDS011;19510;54.486;9.046;2023-05-07T06:23:23;7.40;;;5.47;;
16837;SDS011;19510;54.486;9.046;2023-05-07T06:25:49;7.32;;;5.30;;
16837;SDS011;19510;54.486;9.046;2023-05-07T06:28:16;9.43;;;5.53;;
16837;SDS011;19510;54.486;9.046;2023-05-07T06:30:41;9.23;;;5.15;;
16837;SDS011;19510;54.486;9.046;2023-05-07T06:33:07;7.88;;;5.85;;
16837;SDS011;19510;54.486;9.046;2023-05-07T06:35:33;7.97;;;4.97;;
16837;SDS011;19510;54.486;9.046;2023-05-07T06:37:59;7.55;;;5.18;;
16837;SDS011;19510;54.486;9.046;2023-05-07T06:40:26;6.25;;;4.95;;
16837;SDS011;19510;54.486;9.046;2023-05-07T06:42:52;6.75;;;4.78;;
16837;SDS011;19510;54.486;9.046;2023-05-07T06:45:21;6.35;;;4.82;;
16837;SDS011;19510;54.486;9.046;2023-05-07T06:47:47;7.38;;;4.88;;
16837;SDS011;19510;54.486;9.046;2023-05-07T06:50:13;8.45;;;5.78;;
16837;SDS011;19510;54.486;9.046;2023-05-07T06:52:41;7.90;;;5.47;;
16837;SDS011;19510;54.486;9.046;2023-05-07T06:55:06;8.13;;;5.07;;
16837;SDS011;19510;54.486;9.046;2023-05-07T06:57:33;6.78;;;4.72;;
16837;SDS011;19510;54.486;9.046;2023-05-07T06:59:58;6.50;;;5.45;;
16837;SDS011;19510;54.486;9.046;2023-05-07T07:02:24;6.72;;;4.78;;
16837;SDS011;19510;54.486;9.046;2023-05-07T07:04:52;10.10;;;5.45;;
16837;SDS011;19510;54.486;9.046;2023-05-07T07:07:18;8.32;;;5.35;;
16837;SDS011;19510;54.486;9.046;2023-05-07T07:09:44;6.25;;;4.68;;
16837;SDS011;19510;54.486;9.046;2023-05-07T07:12:09;7.15;;;5.55;;
16837;SDS011;19510;54.486;9.046;2023-05-07T07:14:35;7.47;;;5.32;;
16837;SDS011;19510;54.486;9.046;2023-05-07T07:17:01;6.53;;;4.68;;
16837;SDS011;19510;54.486;9.046;2023-05-07T07:19:27;7.88;;;5.45;;
16837;SDS011;19510;54.486;9.046;2023-05-07T07:21:52;10.82;;;7.40;;
16837;SDS011;19510;54.486;9.046;2023-05-07T07:24:18;9.15;;;6.53;;
16837;SDS011;19510;54.486;9.046;2023-05-07T07:26:46;6.18;;;4.82;;
16837;SDS011;19510;54.486;9.046;2023-05-07T07:29:12;8.45;;;6.10;;
16837;SDS011;19510;54.486;9.046;2023-05-07T07:31:38;6.10;;;5.00;;
16837;SDS011;19510;54.486;9.046;2023-05-07T07:34:04;7.93;;;5.55;;
16837;SDS011;19510;54.486;9.046;2023-05-07T07:36:29;7.78;;;5.35;;
16837;SDS011;19510;54.486;9.046;2023-05-07T07:38:55;7.22;;;5.22;;
16837;SDS011;19510;54.486;9.046;2023-05-07T07:41:21;6.93;;;4.72;;
16837;SDS011;19510;54.486;9.046;2023-05-07T07:43:47;7.65;;;5.55;;
16837;SDS011;19510;54.486;9.046;2023-05-07T07:46:13;7.38;;;4.95;;
16837;SDS011;19510;54.486;9.046;2023-05-07T07:48:42;6.55;;;4.72;;
16837;SDS011;19510;54.486;9.046;2023-05-07T07:51:09;7.20;;;4.47;;
16837;SDS011;19510;54.486;9.046;2023-05-07T07:53:35;5.28;;;3.88;;
16837;SDS011;19510;54.486;9.046;2023-05-07T07:56:01;6.57;;;4.72;;
16837;SDS011;19510;54.486;9.046;2023-05-07T07:58:26;7.18;;;4.75;;
16837;SDS011;19510;54.486;9.046;2023-05-07T08:00:52;6.93;;;4.63;;
16837;SDS011;19510;54.486;9.046;2023-05-07T08:03:20;6.97;;;4.60;;
16837;SDS011;19510;54.486;9.046;2023-05-07T08:05:46;5.93;;;4.38;;
16837;SDS011;19510;54.486;9.046;2023-05-07T08:08:12;6.55;;;4.50;;
16837;SDS011;19510;54.486;9.046;2023-05-07T08:10:38;8.15;;;4.35;;
16837;SDS011;19510;54.486;9.046;2023-05-07T08:13:04;5.60;;;4.25;;
16837;SDS011;19510;54.486;9.046;2023-05-07T08:15:30;5.30;;;4.28;;
16837;SDS011;19510;54.486;9.046;2023-05-07T08:17:56;6.03;;;4.22;;
16837;SDS011;19510;54.486;9.046;2023-05-07T08:20:23;11.05;;;7.03;;
16837;SDS011;19510;54.486;9.046;2023-05-07T08:22:49;8.68;;;4.72;;
16837;SDS011;19510;54.486;9.046;2023-05-07T08:25:16;8.30;;;4.75;;
16837;SDS011;19510;54.486;9.046;2023-05-07T08:27:41;7.18;;;4.70;;
16837;SDS011;19510;54.486;9.046;2023-05-07T08:30:07;5.47;;;3.97;;
16837;SDS011;19510;54.486;9.046;2023-05-07T08:32:36;5.07;;;4.10;;
16837;SDS011;19510;54.486;9.046;2023-05-07T08:35:02;5.38;;;4.05;;
16837;SDS011;19510;54.486;9.046;2023-05-07T08:37:28;7.65;;;4.60;;
16837;SDS011;19510;54.486;9.046;2023-05-07T08:39:54;6.38;;;4.47;;
16837;SDS011;19510;54.486;9.046;2023-05-07T08:42:19;6.05;;;4.68;;
16837;SDS011;19510;54.486;9.046;2023-05-07T08:44:48;5.40;;;4.00;;
16837;SDS011;19510;54.486;9.046;2023-05-07T08:47:19;7.43;;;5.20;;
16837;SDS011;19510;54.486;9.046;2023-05-07T08:49:47;7.30;;;4.57;;
16837;SDS011;19510;54.486;9.046;2023-05-07T08:52:14;5.35;;;4.25;;
16837;SDS011;19510;54.486;9.046;2023-05-07T08:54:40;6.18;;;4.50;;
16837;SDS011;19510;54.486;9.046;2023-05-07T08:57:06;5.80;;;4.10;;
16837;SDS011;19510;54.486;9.046;2023-05-07T08:59:32;6.78;;;3.80;;
16837;SDS011;19510;54.486;9.046;2023-05-07T09:01:57;3.72;;;3.25;;
16837;SDS011;19510;54.486;9.046;2023-05-07T09:04:23;7.72;;;4.05;;
16837;SDS011;19510;54.486;9.046;2023-05-07T09:06:49;4.53;;;3.67;;
16837;SDS011;19510;54.486;9.046;2023-05-07T09:09:16;3.72;;;3.30;;
16837;SDS011;19510;54.486;9.046;2023-05-07T09:11:44;5.38;;;3.60;;
16837;SDS011;19510;54.486;9.046;2023-05-07T09:14:09;5.30;;;3.58;;
16837;SDS011;19510;54.486;9.046;2023-05-07T09:16:35;5.82;;;3.92;;
16837;SDS011;19510;54.486;9.046;2023-05-07T09:19:01;3.85;;;3.40;;
16837;SDS011;19510;54.486;9.046;2023-05-07T09:21:27;8.68;;;3.85;;
16837;SDS011;19510;54.486;9.046;2023-05-07T09:23:53;4.55;;;3.75;;
16837;SDS011;19510;54.486;9.046;2023-05-07T09:26:23;5.60;;;3.65;;
16837;SDS011;19510;54.486;9.046;2023-05-07T09:28:50;5.38;;;4.05;;
16837;SDS011;19510;54.486;9.046;2023-05-07T09:31:16;5.05;;;3.55;;
16837;SDS011;19510;54.486;9.046;2023-05-07T09:33:42;4.15;;;3.15;;
16837;SDS011;19510;54.486;9.046;2023-05-07T09:36:08;8.27;;;3.70;;
16837;SDS011;19510;54.486;9.046;2023-05-07T09:38:35;4.47;;;3.00;;
16837;SDS011;19510;54.486;9.046;2023-05-07T09:41:05;4.53;;;3.10;;
16837;SDS011;19510;54.486;9.046;2023-05-07T09:43:33;4.72;;;3.40;;
16837;SDS011;19510;54.486;9.046;2023-05-07T09:46:03;6.03;;;3.10;;
16837;SDS011;19510;54.486;9.046;2023-05-07T09:48:35;3.65;;;3.22;;
16837;SDS011;19510;54.486;9.046;2023-05-07T09:51:04;3.72;;;2.92;;
16837;SDS011;19510;54.486;9.046;2023-05-07T09:53:38;5.90;;;3.20;;
16837;SDS011;19510;54.486;9.046;2023-05-07T09:56:05;5.03;;;2.90;;
16837;SDS011;19510;54.486;9.046;2023-05-07T09:58:32;3.58;;;2.80;;
16837;SDS011;19510;54.486;9.046;2023-05-07T10:01:02;4.50;;;3.30;;
16837;SDS011;19510;54.486;9.046;2023-05-07T10:03:28;4.97;;;3.30;;
16837;SDS011;19510;54.486;9.046;2023-05-07T10:06:00;3.78;;;3.15;;
16837;SDS011;19510;54.486;9.046;2023-05-07T10:08:27;3.83;;;2.97;;
16837;SDS011;19510;54.486;9.046;2023-05-07T10:10:55;4.35;;;3.30;;
16837;SDS011;19510;54.486;9.046;2023-05-07T10:13:21;3.42;;;2.75;;
16837;SDS011;19510;54.486;9.046;2023-05-07T10:15:47;4.65;;;2.92;;
16837;SDS011;19510;54.486;9.046;2023-05-07T10:18:13;3.75;;;2.80;;
16837;SDS011;19510;54.486;9.046;2023-05-07T10:20:40;5.30;;;3.13;;
16837;SDS011;19510;54.486;9.046;2023-05-07T10:23:07;5.32;;;2.90;;
16837;SDS011;19510;54.486;9.046;2023-05-07T10:25:45;4.22;;;3.10;;
16837;SDS011;19510;54.486;9.046;2023-05-07T10:28:11;3.78;;;2.53;;
16837;SDS011;19510;54.486;9.046;2023-05-07T10:30:40;5.38;;;2.92;;
16837;SDS011;19510;54.486;9.046;2023-05-07T10:33:13;3.42;;;2.80;;
16837;SDS011;19510;54.486;9.046;2023-05-07T10:35:42;3.20;;;2.90;;
16837;SDS011;19510;54.486;9.046;2023-05-07T10:38:11;5.68;;;2.70;;
16837;SDS011;19510;54.486;9.046;2023-05-07T10:40:38;5.60;;;3.05;;
16837;SDS011;19510;54.486;9.046;2023-05-07T10:43:04;4.32;;;3.53;;
16837;SDS011;19510;54.486;9.046;2023-05-07T10:45:30;4.80;;;3.22;;
16837;SDS011;19510;54.486;9.046;2023-05-07T10:50:36;5.30;;;3.38;;
16837;SDS011;19510;54.486;9.046;2023-05-07T10:55:47;4.28;;;3.00;;
16837;SDS011;19510;54.486;9.046;2023-05-07T10:58:26;4.80;;;3.17;;
16837;SDS011;19510;54.486;9.046;2023-05-07T11:01:01;3.72;;;2.75;;
16837;SDS011;19510;54.486;9.046;2023-05-07T11:03:27;3.03;;;2.30;;
16837;SDS011;19510;54.486;9.046;2023-05-07T11:06:09;3.45;;;2.55;;
16837;SDS011;19510;54.486;9.046;2023-05-07T11:11:18;4.25;;;2.58;;
16837;SDS011;19510;54.486;9.046;2023-05-07T11:13:45;2.35;;;2.15;;
16837;SDS011;19510;54.486;9.046;2023-05-07T11:16:18;2.83;;;2.50;;
16837;SDS011;19510;54.486;9.046;2023-05-07T11:18:49;3.60;;;2.47;;
16837;SDS011;19510;54.486;9.046;2023-05-07T11:21:32;2.92;;;2.70;;
16837;SDS011;19510;54.486;9.046;2023-05-07T11:24:05;3.90;;;2.60;;
16837;SDS011;19510;54.486;9.046;2023-05-07T11:26:41;3.40;;;2.60;;
16837;SDS011;19510;54.486;9.046;2023-05-07T11:29:16;3.17;;;2.72;;
16837;SDS011;19510;54.486;9.046;2023-05-07T11:31:44;3.95;;;2.40;;
16837;SDS011;19510;54.486;9.046;2023-05-07T11:34:23;3.28;;;2.58;;
16837;SDS011;19510;54.486;9.046;2023-05-07T11:36:50;3.67;;;3.00;;
16837;SDS011;19510;54.486;9.046;2023-05-07T11:39:27;3.25;;;2.50;;
16837;SDS011;19510;54.486;9.046;2023-05-07T11:41:58;3.38;;;2.63;;
16837;SDS011;19510;54.486;9.046;2023-05-07T11:44:24;3.40;;;2.40;;
16837;SDS011;19510;54.486;9.046;2023-05-07T11:46:50;2.83;;;2.53;;
16837;SDS011;19510;54.486;9.046;2023-05-07T11:49:16;3.33;;;2.55;;
16837;SDS011;19510;54.486;9.046;2023-05-07T11:51:43;3.22;;;2.47;;
16837;SDS011;19510;54.486;9.046;2023-05-07T11:54:11;5.28;;;2.40;;
16837;SDS011;19510;54.486;9.046;2023-05-07T11:56:40;2.83;;;2.30;;
16837;SDS011;19510;54.486;9.046;2023-05-07T11:59:06;2.28;;;2.05;;
16837;SDS011;19510;54.486;9.046;2023-05-07T12:01:31;3.72;;;2.38;;
16837;SDS011;19510;54.486;9.046;2023-05-07T12:04:00;3.42;;;2.50;;
16837;SDS011;19510;54.486;9.046;2023-05-07T12:06:28;2.72;;;2.47;;
16837;SDS011;19510;54.486;9.046;2023-05-07T12:08:54;3.17;;;2.20;;
16837;SDS011;19510;54.486;9.046;2023-05-07T12:11:24;2.50;;;2.17;;
16837;SDS011;19510;54.486;9.046;2023-05-07T12:13:50;4.18;;;2.40;;
16837;SDS011;19510;54.486;9.046;2023-05-07T12:16:18;4.40;;;2.90;;
16837;SDS011;19510;54.486;9.046;2023-05-07T12:18:44;3.42;;;2.42;;
16837;SDS011;19510;54.486;9.046;2023-05-07T12:21:11;3.25;;;2.30;;
16837;SDS011;19510;54.486;9.046;2023-05-07T12:23:37;2.53;;;2.30;;
16837;SDS011;19510;54.486;9.046;2023-05-07T12:26:05;3.00;;;2.38;;
16837;SDS011;19510;54.486;9.046;2023-05-07T12:28:35;3.22;;;2.65;;
16837;SDS011;19510;54.486;9.046;2023-05-07T12:31:04;2.40;;;2.20;;
16837;SDS011;19510;54.486;9.046;2023-05-07T12:33:31;2.85;;;2.47;;
16837;SDS011;19510;54.486;9.046;2023-05-07T12:35:57;3.28;;;2.47;;
16837;SDS011;19510;54.486;9.046;2023-05-07T12:38:23;3.30;;;2.03;;
16837;SDS011;19510;54.486;9.046;2023-05-07T12:40:50;2.40;;;2.20;;
16837;SDS011;19510;54.486;9.046;2023-05-07T12:43:24;2.88;;;2.13;;
16837;SDS011;19510;54.486;9.046;2023-05-07T12:45:51;2.40;;;2.10;;
16837;SDS011;19510;54.486;9.046;2023-05-07T12:48:19;5.63;;;2.20;;
16837;SDS011;19510;54.486;9.046;2023-05-07T12:50:45;2.88;;;2.20;;
16837;SDS011;19510;54.486;9.046;2023-05-07T12:53:15;3.10;;;2.35;;
16837;SDS011;19510;54.486;9.046;2023-05-07T12:55:44;2.65;;;1.95;;
16837;SDS011;19510;54.486;9.046;2023-05-07T12:58:18;3.20;;;2.15;;
16837;SDS011;19510;54.486;9.046;2023-05-07T13:00:55;1.85;;;1.75;;
16837;SDS011;19510;54.486;9.046;2023-05-07T13:03:30;2.65;;;2.30;;
16837;SDS011;19510;54.486;9.046;2023-05-07T13:05:58;2.65;;;1.50;;
16837;SDS011;19510;54.486;9.046;2023-05-07T13:08:34;2.60;;;2.03;;
16837;SDS011;19510;54.486;9.046;2023-05-07T13:11:06;1.95;;;1.73;;
16837;SDS011;19510;54.486;9.046;2023-05-07T13:13:34;3.55;;;1.88;;
16837;SDS011;19510;54.486;9.046;2023-05-07T13:16:01;2.13;;;1.80;;
16837;SDS011;19510;54.486;9.046;2023-05-07T13:18:29;2.08;;;1.85;;
16837;SDS011;19510;54.486;9.046;2023-05-07T13:20:56;1.83;;;1.73;;
16837;SDS011;19510;54.486;9.046;2023-05-07T13:23:21;1.70;;;1.52;;
16837;SDS011;19510;54.486;9.046;2023-05-07T13:25:48;2.20;;;1.90;;
16837;SDS011;19510;54.486;9.046;2023-05-07T13:28:14;1.50;;;1.40;;
16837;SDS011;19510;54.486;9.046;2023-05-07T13:30:39;2.42;;;1.92;;
16837;SDS011;19510;54.486;9.046;2023-05-07T13:33:06;2.10;;;1.77;;
16837;SDS011;19510;54.486;9.046;2023-05-07T13:35:32;3.00;;;1.90;;
16837;SDS011;19510;54.486;9.046;2023-05-07T13:37:58;1.80;;;1.40;;
16837;SDS011;19510;54.486;9.046;2023-05-07T13:40:24;2.38;;;2.13;;
16837;SDS011;19510;54.486;9.046;2023-05-07T13:42:50;2.80;;;1.90;;
16837;SDS011;19510;54.486;9.046;2023-05-07T13:45:16;2.63;;;1.48;;
16837;SDS011;19510;54.486;9.046;2023-05-07T13:47:43;1.58;;;1.45;;
16837;SDS011;19510;54.486;9.046;2023-05-07T13:50:09;1.60;;;1.50;;
16837;SDS011;19510;54.486;9.046;2023-05-07T13:52:37;1.65;;;1.55;;
16837;SDS011;19510;54.486;9.046;2023-05-07T13:55:03;2.95;;;2.65;;
16837;SDS011;19510;54.486;9.046;2023-05-07T13:57:29;2.55;;;2.33;;
16837;SDS011;19510;54.486;9.046;2023-05-07T13:59:55;4.05;;;2.22;;
16837;SDS011;19510;54.486;9.046;2023-05-07T14:02:22;2.17;;;1.95;;
16837;SDS011;19510;54.486;9.046;2023-05-07T14:04:48;3.83;;;2.45;;
16837;SDS011;19510;54.486;9.046;2023-05-07T14:07:14;3.35;;;1.67;;
16837;SDS011;19510;54.486;9.046;2023-05-07T14:09:40;1.60;;;1.50;;
16837;SDS011;19510;54.486;9.046;2023-05-07T14:12:05;1.98;;;1.88;;
16837;SDS011;19510;54.486;9.046;2023-05-07T14:14:31;2.60;;;1.40;;
16837;SDS011;19510;54.486;9.046;2023-05-07T14:16:57;2.83;;;1.40;;
16837;SDS011;19510;54.486;9.046;2023-05-07T14:19:23;1.52;;;1.42;;
16837;SDS011;19510;54.486;9.046;2023-05-07T14:21:48;2.30;;;1.65;;
16837;SDS011;19510;54.486;9.046;2023-05-07T14:24:14;2.40;;;1.40;;
16837;SDS011;19510;54.486;9.046;2023-05-07T14:26:40;1.30;;;1.20;;
16837;SDS011;19510;54.486;9.046;2023-05-07T14:29:05;1.52;;;1.40;;
16837;SDS011;19510;54.486;9.046;2023-05-07T14:31:31;1.48;;;1.38;;
16837;SDS011;19510;54.486;9.046;2023-05-07T14:33:58;1.77;;;1.50;;
16837;SDS011;19510;54.486;9.046;2023-05-07T14:36:24;1.58;;;1.40;;
16837;SDS011;19510;54.486;9.046;2023-05-07T14:38:51;1.77;;;1.42;;
16837;SDS011;19510;54.486;9.046;2023-05-07T14:41:21;4.13;;;1.38;;
16837;SDS011;19510;54.486;9.046;2023-05-07T14:43:47;1.35;;;1.10;;
16837;SDS011;19510;54.486;9.046;2023-05-07T14:46:18;2.83;;;1.45;;
16837;SDS011;19510;54.486;9.046;2023-05-07T14:48:47;2.67;;;1.50;;